Huvudsida
METAR-TAF:

METAR-TAF

Flygplatser :

Gregorio Luperóns internationella flygplats

Puerto Plata, Dominikanska republiken

latitud: 19-45N, longitud: 070-33W, höjd: 15 m

Aktuellt väderrapport

Denna rapport gjordes för 3 timmar och 1 minuter sedan, klockan 03:00 UTC
Stilla vind
Temperatur 27°C
Fuktighet 89%
Tryck 1015 hPa
Sikt 10 km eller mer
Få moln på en höjd av 1600 ft
Spridda moln på en höjd av 30000 ft

METAR: MDPP 230300Z 00000KT 9999 FEW016 SCT300 27/25 Q1015

Tid: 02:01 (06:01 UTC)

Väderprognos

Denna rapport gjordes för 2 timmar och 1 minuter sedan, klockan 04:00 UTC
Prognos gäller från 23 kl. 06 UTC till 24 kl. 06 UTC
Vind kt från nord
Sikt 10 km eller mer
Få moln på en höjd av 1500 ft
Brutna moln på en höjd av 30000 ft

TAF: MDPP 230400Z 2306/2406 00000KT 9999 FEW015 BKN300

Aktuella väderrapporter och prognoser från 4000 flygplatser (METAR- och TAF-rapporter).

De tillgängliga stationerna syns som gula och röda prickar på kartan.

För musen över prickarna för att se namnen på stationerna.

Klicka sedan för att få väderrapporter och prognoser.

För att ändra kartan: Klicka på de gröna knapparna med ett svart kors på för att zooma in; den gröna knappen med ett streck på för att zooma ut; eller på de gröna pilarna för angränsande kartor.


METAR-TAF: